Private Wetterstation Sandau
Wetterdaten: Donnerstag, 29.03.2012
Datum Zeit Temp. A. Feuchte A. Luftdruck Regen Wind Richtung Richtung Taupunkt Windchill
29.03.2012 00:02 9,9 C 70 % 1019,2 hPa 0,0 l/m 22,3 km/h (4 Bft) N 360 4,7 C 7,0 C
29.03.2012 00:07 9,9 C 70 % 1019,2 hPa 0,0 l/m 8,6 km/h (2 Bft) W-SW 247 4,7 C 8,8 C
29.03.2012 00:12 9,9 C 70 % 1019,2 hPa 0,0 l/m 26,6 km/h (4 Bft) W-NW 292 4,7 C 6,7 C
29.03.2012 00:17 10,1 C 70 % 1019,4 hPa 0,0 l/m 11,5 km/h (2 Bft) NW 315 4,9 C 10,1 C
29.03.2012 00:22 10,1 C 71 % 1019,2 hPa 0,0 l/m 11,2 km/h (2 Bft) W 270 5,1 C 10,1 C
29.03.2012 00:27 10,1 C 71 % 1019,2 hPa 0,0 l/m 15,5 km/h (3 Bft) W-NW 292 5,1 C 10,1 C
29.03.2012 00:32 10,1 C 71 % 1019,2 hPa 0,0 l/m 15,8 km/h (3 Bft) N-NW 337 5,1 C 10,1 C
29.03.2012 00:37 10,0 C 71 % 1019,3 hPa 0,0 l/m 10,1 km/h (2 Bft) W 270 5,0 C 8,6 C
29.03.2012 00:42 9,9 C 71 % 1019,1 hPa 0,0 l/m 20,5 km/h (4 Bft) W 270 4,9 C 7,2 C
29.03.2012 00:47 9,9 C 71 % 1019,2 hPa 0,0 l/m 15,1 km/h (3 Bft) W-NW 292 4,9 C 7,8 C
29.03.2012 00:52 9,9 C 71 % 1019,3 hPa 0,0 l/m 14,4 km/h (3 Bft) W-NW 292 4,9 C 7,9 C
29.03.2012 00:57 9,9 C 71 % 1019,4 hPa 0,0 l/m 22,0 km/h (4 Bft) NW 315 4,9 C 7,1 C
29.03.2012 01:02 9,9 C 71 % 1019,3 hPa 0,0 l/m 18,4 km/h (3 Bft) N-NW 337 4,9 C 7,4 C
29.03.2012 01:07 9,9 C 71 % 1019,2 hPa 0,0 l/m 25,6 km/h (4 Bft) NW 315 4,9 C 6,8 C
29.03.2012 01:12 9,8 C 71 % 1019,2 hPa 0,0 l/m 10,1 km/h (2 Bft) W-NW 292 4,8 C 8,4 C
29.03.2012 01:17 9,8 C 71 % 1019,2 hPa 0,0 l/m 21,2 km/h (4 Bft) W-NW 292 4,8 C 7,0 C
29.03.2012 01:22 9,8 C 71 % 1019,3 hPa 0,0 l/m 10,1 km/h (2 Bft) N 360 4,8 C 8,4 C
29.03.2012 01:27 9,8 C 72 % 1019,3 hPa 0,0 l/m 13,7 km/h (3 Bft) N-NW 337 5,0 C 7,8 C
29.03.2012 01:32 9,8 C 72 % 1019,2 hPa 0,0 l/m 8,3 km/h (2 Bft) W-NW 292 5,0 C 8,7 C
29.03.2012 01:37 9,8 C 72 % 1019,2 hPa 0,0 l/m 18,0 km/h (3 Bft) N 360 5,0 C 7,3 C
29.03.2012 01:42 9,6 C 72 % 1019,3 hPa 0,0 l/m 25,2 km/h (4 Bft) W-NW 292 4,8 C 6,4 C
29.03.2012 01:47 9,6 C 71 % 1019,2 hPa 0,0 l/m 32,0 km/h (5 Bft) N-NW 337 4,6 C 5,9 C
29.03.2012 01:52 9,5 C 71 % 1019,3 hPa 0,0 l/m 11,2 km/h (2 Bft) W-NW 292 4,5 C 7,8 C
29.03.2012 01:57 9,5 C 71 % 1019,2 hPa 0,0 l/m 5,4 km/h (1 Bft) W-SW 247 4,5 C 9,1 C
29.03.2012 02:02 9,4 C 71 % 1019,3 hPa 0,0 l/m 8,6 km/h (2 Bft) W-NW 292 4,4 C 8,2 C
29.03.2012 02:07 9,3 C 71 % 1019,0 hPa 0,0 l/m 10,4 km/h (2 Bft) N-NW 337 4,3 C 7,7 C
29.03.2012 02:12 9,3 C 71 % 1019,0 hPa 0,0 l/m 17,3 km/h (3 Bft) N-NW 337 4,3 C 6,8 C
29.03.2012 02:17 9,2 C 71 % 1019,2 hPa 0,0 l/m 11,5 km/h (2 Bft) W 270 4,2 C 7,4 C
29.03.2012 02:22 9,2 C 71 % 1019,0 hPa 0,0 l/m 15,8 km/h (3 Bft) W 270 4,2 C 6,8 C
29.03.2012 02:27 9,1 C 71 % 1019,2 hPa 0,0 l/m 10,1 km/h (2 Bft) W 270 4,1 C 7,5 C
29.03.2012 02:32 9,0 C 71 % 1019,0 hPa 0,0 l/m 25,2 km/h (4 Bft) W-NW 292 4,0 C 5,6 C
29.03.2012 02:37 8,9 C 71 % 1018,7 hPa 0,0 l/m 14,0 km/h (3 Bft) W-SW 247 3,9 C 6,7 C
29.03.2012 02:42 8,9 C 71 % 1018,9 hPa 0,0 l/m 19,1 km/h (3 Bft) W-NW 292 3,9 C 6,1 C
29.03.2012 02:47 8,8 C 71 % 1019,0 hPa 0,0 l/m 19,8 km/h (3 Bft) N-NW 337 3,8 C 5,9 C
29.03.2012 02:52 8,7 C 71 % 1018,9 hPa 0,0 l/m 14,4 km/h (3 Bft) W-NW 292 3,7 C 6,4 C
29.03.2012 02:57 8,6 C 71 % 1018,7 hPa 0,0 l/m 9,4 km/h (2 Bft) NW 315 3,6 C 7,1 C
29.03.2012 03:02 8,6 C 71 % 1018,8 hPa 0,0 l/m 13,7 km/h (3 Bft) NW 315 3,6 C 6,4 C
29.03.2012 03:07 8,5 C 71 % 1018,9 hPa 0,0 l/m 12,6 km/h (3 Bft) W-NW 292 3,5 C 6,4 C
29.03.2012 03:12 8,5 C 70 % 1018,9 hPa 0,0 l/m 14,8 km/h (3 Bft) W-NW 292 3,3 C 6,1 C
29.03.2012 03:17 8,4 C 70 % 1019,1 hPa 0,0 l/m 8,6 km/h (2 Bft) W 270 3,3 C 7,0 C
29.03.2012 03:22 8,4 C 70 % 1018,7 hPa 0,0 l/m 21,2 km/h (4 Bft) W-NW 292 3,3 C 5,2 C
29.03.2012 03:27 8,3 C 71 % 1018,7 hPa 0,0 l/m 10,1 km/h (2 Bft) W 270 3,4 C 6,6 C
29.03.2012 03:32 8,2 C 71 % 1018,8 hPa 0,0 l/m 12,2 km/h (2 Bft) W-NW 292 3,3 C 6,1 C
29.03.2012 03:37 8,1 C 71 % 1018,8 hPa 0,0 l/m 9,0 km/h (2 Bft) W 270 3,2 C 6,6 C
29.03.2012 03:42 8,1 C 71 % 1018,7 hPa 0,0 l/m 12,6 km/h (3 Bft) W 270 3,2 C 5,9 C
29.03.2012 03:47 8,1 C 72 % 1018,8 hPa 0,0 l/m 18,7 km/h (3 Bft) NW 315 3,4 C 5,1 C
29.03.2012 03:52 8,1 C 71 % 1018,6 hPa 0,0 l/m 10,1 km/h (2 Bft) W-NW 292 3,2 C 6,3 C
29.03.2012 03:57 8,2 C 72 % 1018,6 hPa 0,0 l/m 15,8 km/h (3 Bft) W-NW 292 3,5 C 5,6 C
29.03.2012 04:02 8,2 C 72 % 1018,8 hPa 0,0 l/m 10,4 km/h (2 Bft) W-NW 292 3,5 C 6,4 C
29.03.2012 04:07 8,2 C 72 % 1018,6 hPa 0,0 l/m 12,2 km/h (2 Bft) NW 315 3,5 C 6,1 C
29.03.2012 04:12 8,2 C 72 % 1018,6 hPa 0,0 l/m 8,6 km/h (2 Bft) W-NW 292 3,5 C 6,8 C
29.03.2012 04:17 8,2 C 71 % 1018,6 hPa 0,0 l/m 8,3 km/h (2 Bft) W-NW 292 3,3 C 6,8 C
29.03.2012 04:22 8,2 C 71 % 1018,6 hPa 0,0 l/m 15,5 km/h (3 Bft) N 360 3,3 C 5,6 C
29.03.2012 04:27 8,2 C 71 % 1018,5 hPa 0,0 l/m 7,6 km/h (2 Bft) W 270 3,3 C 7,0 C
29.03.2012 04:32 8,2 C 71 % 1018,4 hPa 0,0 l/m 28,1 km/h (4 Bft) NW 315 3,3 C 4,4 C
29.03.2012 04:37 8,2 C 71 % 1018,3 hPa 0,0 l/m 14,0 km/h (3 Bft) W 270 3,3 C 5,8 C
29.03.2012 04:42 8,2 C 71 % 1018,3 hPa 0,0 l/m 19,8 km/h (3 Bft) W 270 3,3 C 5,1 C
29.03.2012 04:47 8,2 C 71 % 1018,2 hPa 0,0 l/m 19,4 km/h (3 Bft) W 270 3,3 C 5,2 C
29.03.2012 04:52 8,2 C 71 % 1018,2 hPa 0,0 l/m 11,5 km/h (2 Bft) W-NW 292 3,3 C 6,2 C
29.03.2012 04:57 8,2 C 71 % 1018,4 hPa 0,0 l/m 18,7 km/h (3 Bft) W-NW 292 3,3 C 5,2 C
29.03.2012 05:02 8,3 C 71 % 1018,2 hPa 0,0 l/m 16,9 km/h (3 Bft) W 270 3,4 C 5,6 C
29.03.2012 05:07 8,3 C 71 % 1018,2 hPa 0,0 l/m 15,8 km/h (3 Bft) W-NW 292 3,4 C 5,7 C
29.03.2012 05:12 8,3 C 71 % 1018,2 hPa 0,0 l/m 18,0 km/h (3 Bft) W 270 3,4 C 5,4 C
29.03.2012 05:17 8,2 C 71 % 1018,2 hPa 0,0 l/m 19,4 km/h (3 Bft) W-NW 292 3,3 C 5,2 C
29.03.2012 05:22 8,2 C 71 % 1018,2 hPa 0,0 l/m 15,8 km/h (3 Bft) NW 315 3,3 C 5,6 C
29.03.2012 05:27 8,2 C 71 % 1018,2 hPa 0,0 l/m 14,4 km/h (3 Bft) NW 315 3,3 C 5,8 C
29.03.2012 05:32 8,1 C 71 % 1018,2 hPa 0,0 l/m 24,1 km/h (4 Bft) W-NW 292 3,2 C 4,6 C
29.03.2012 05:37 8,1 C 71 % 1018,2 hPa 0,0 l/m 13,0 km/h (3 Bft) W-NW 292 3,2 C 5,9 C
29.03.2012 05:42 7,9 C 71 % 1017,8 hPa 0,0 l/m 22,0 km/h (4 Bft) W-NW 292 3,0 C 4,5 C
29.03.2012 05:47 7,8 C 71 % 1017,9 hPa 0,0 l/m 15,8 km/h (3 Bft) NW 315 2,9 C 5,1 C
29.03.2012 05:52 7,8 C 71 % 1017,8 hPa 0,0 l/m 14,8 km/h (3 Bft) W 270 2,9 C 5,2 C
29.03.2012 05:57 7,6 C 71 % 1017,9 hPa 0,0 l/m 13,0 km/h (3 Bft) NW 315 2,7 C 5,2 C
29.03.2012 06:02 7,6 C 72 % 1017,7 hPa 0,0 l/m 12,2 km/h (2 Bft) W 270 2,9 C 5,4 C
29.03.2012 06:07 7,5 C 72 % 1017,7 hPa 0,0 l/m 10,8 km/h (2 Bft) W 270 2,8 C 5,5 C
29.03.2012 06:12 7,5 C 72 % 1017,5 hPa 0,0 l/m 15,8 km/h (3 Bft) W-NW 292 2,8 C 4,7 C
29.03.2012 06:17 7,4 C 72 % 1017,5 hPa 0,0 l/m 16,9 km/h (3 Bft) NW 315 2,7 C 4,5 C
29.03.2012 06:22 7,4 C 73 % 1017,5 hPa 0,0 l/m 18,0 km/h (3 Bft) W-NW 292 2,9 C 4,3 C
29.03.2012 06:27 7,4 C 73 % 1017,5 hPa 0,0 l/m 19,1 km/h (3 Bft) W-NW 292 2,9 C 4,2 C
29.03.2012 06:32 7,4 C 73 % 1017,4 hPa 0,0 l/m 15,8 km/h (3 Bft) W-NW 292 2,9 C 4,6 C
29.03.2012 06:37 7,4 C 73 % 1017,3 hPa 0,0 l/m 8,3 km/h (2 Bft) W 270 2,9 C 5,9 C
29.03.2012 06:42 7,4 C 73 % 1017,3 hPa 0,0 l/m 13,0 km/h (3 Bft) NW 315 2,9 C 5,0 C
29.03.2012 06:47 7,3 C 73 % 1017,4 hPa 0,0 l/m 14,0 km/h (3 Bft) W-NW 292 2,8 C 4,7 C
29.03.2012 06:52 7,3 C 73 % 1017,3 hPa 0,0 l/m 13,3 km/h (3 Bft) W 270 2,8 C 4,8 C
29.03.2012 06:57 7,3 C 73 % 1017,3 hPa 0,0 l/m 8,3 km/h (2 Bft) W-NW 292 2,8 C 5,8 C
29.03.2012 07:02 7,3 C 73 % 1017,4 hPa 0,0 l/m 5,4 km/h (1 Bft) NW 315 2,8 C 6,6 C
29.03.2012 07:07 7,3 C 73 % 1017,2 hPa 0,0 l/m 2,9 km/h (1 Bft) W 270 2,8 C 7,3 C
29.03.2012 07:12 7,3 C 73 % 1017,1 hPa 0,0 l/m 19,4 km/h (3 Bft) W-NW 292 2,8 C 4,0 C
29.03.2012 07:17 7,4 C 73 % 1017,4 hPa 0,0 l/m 7,6 km/h (2 Bft) NW 315 2,9 C 6,0 C
29.03.2012 07:22 7,5 C 73 % 1017,3 hPa 0,0 l/m 9,4 km/h (2 Bft) W-NW 292 3,0 C 5,8 C
29.03.2012 07:27 7,5 C 72 % 1017,1 hPa 0,0 l/m 10,8 km/h (2 Bft) W-NW 292 2,8 C 5,5 C
29.03.2012 07:32 7,6 C 72 % 1017,3 hPa 0,0 l/m 13,7 km/h (3 Bft) NW 315 2,9 C 5,1 C
29.03.2012 07:37 7,6 C 72 % 1017,2 hPa 0,0 l/m 17,6 km/h (3 Bft) W-NW 292 2,9 C 4,6 C
29.03.2012 07:42 7,6 C 71 % 1017,2 hPa 0,0 l/m 23,4 km/h (4 Bft) W-SW 247 2,7 C 4,0 C
29.03.2012 07:47 7,8 C 71 % 1017,2 hPa 0,0 l/m 13,7 km/h (3 Bft) W 270 2,9 C 5,4 C
29.03.2012 07:52 7,9 C 71 % 1016,9 hPa 0,0 l/m 23,4 km/h (4 Bft) W-NW 292 3,0 C 4,4 C
29.03.2012 07:57 7,9 C 70 % 1016,9 hPa 0,0 l/m 13,0 km/h (3 Bft) W 270 2,8 C 5,6 C
29.03.2012 08:02 8,1 C 70 % 1017,0 hPa 0,0 l/m 12,2 km/h (2 Bft) W-NW 292 3,0 C 6,0 C
29.03.2012 08:07 8,1 C 70 % 1017,0 hPa 0,0 l/m 15,5 km/h (3 Bft) W-NW 292 3,0 C 5,5 C
29.03.2012 08:12 8,2 C 70 % 1017,2 hPa 0,0 l/m 17,6 km/h (3 Bft) W-NW 292 3,1 C 5,4 C
29.03.2012 08:17 8,2 C 70 % 1017,3 hPa 0,0 l/m 12,2 km/h (2 Bft) W-NW 292 3,1 C 6,1 C
29.03.2012 08:22 8,1 C 70 % 1017,2 hPa 0,0 l/m 12,6 km/h (3 Bft) W-SW 247 3,0 C 5,9 C
29.03.2012 08:27 8,1 C 70 % 1016,8 hPa 0,0 l/m 16,2 km/h (3 Bft) W-NW 292 3,0 C 5,4 C
29.03.2012 08:32 8,1 C 70 % 1016,8 hPa 0,0 l/m 15,8 km/h (3 Bft) W-NW 292 3,0 C 5,5 C
29.03.2012 08:37 8,1 C 70 % 1016,7 hPa 0,0 l/m 18,0 km/h (3 Bft) NW 315 3,0 C 5,2 C
29.03.2012 08:42 8,2 C 70 % 1016,7 hPa 0,0 l/m 15,8 km/h (3 Bft) W-NW 292 3,1 C 5,6 C
29.03.2012 08:47 8,2 C 70 % 1016,6 hPa 0,0 l/m 13,0 km/h (3 Bft) W-NW 292 3,1 C 6,0 C
29.03.2012 08:52 8,2 C 70 % 1016,8 hPa 0,0 l/m 19,8 km/h (3 Bft) W-NW 292 3,1 C 5,1 C
29.03.2012 08:57 8,2 C 70 % 1016,7 hPa 0,0 l/m 17,6 km/h (3 Bft) W-NW 292 3,1 C 5,4 C
29.03.2012 09:02 8,3 C 69 % 1016,6 hPa 0,0 l/m 12,6 km/h (3 Bft) W-NW 292 3,0 C 6,2 C
29.03.2012 09:07 8,3 C 69 % 1016,4 hPa 0,0 l/m 19,1 km/h (3 Bft) W-NW 292 3,0 C 5,3 C
29.03.2012 09:12 8,3 C 69 % 1016,4 hPa 0,0 l/m 14,4 km/h (3 Bft) W-NW 292 3,0 C 5,9 C
29.03.2012 09:17 8,3 C 69 % 1016,4 hPa 0,0 l/m 12,2 km/h (2 Bft) W-NW 292 3,0 C 6,2 C
29.03.2012 09:22 8,4 C 70 % 1016,4 hPa 0,0 l/m 11,2 km/h (2 Bft) W-NW 292 3,3 C 6,5 C
29.03.2012 09:27 8,3 C 70 % 1016,4 hPa 0,0 l/m 15,5 km/h (3 Bft) W-SW 247 3,2 C 5,8 C
29.03.2012 09:32 8,3 C 71 % 1016,3 hPa 0,0 l/m 13,7 km/h (3 Bft) W 270 3,4 C 6,0 C
29.03.2012 09:37 8,3 C 71 % 1016,3 hPa 0,0 l/m 18,7 km/h (3 Bft) W 270 3,4 C 5,4 C
29.03.2012 09:42 8,2 C 71 % 1016,3 hPa 0,0 l/m 18,4 km/h (3 Bft) W 270 3,3 C 5,3 C
29.03.2012 09:47 8,3 C 71 % 1016,3 hPa 0,0 l/m 16,6 km/h (3 Bft) W-NW 292 3,4 C 5,6 C
29.03.2012 09:52 8,3 C 71 % 1016,4 hPa 0,0 l/m 23,8 km/h (4 Bft) NW 315 3,4 C 4,9 C
29.03.2012 09:57 8,3 C 71 % 1016,4 hPa 0,0 l/m 11,9 km/h (2 Bft) W 270 3,4 C 6,3 C
29.03.2012 10:02 8,3 C 72 % 1016,5 hPa 0,0 l/m 11,5 km/h (2 Bft) W 270 3,6 C 6,3 C
29.03.2012 10:07 8,3 C 72 % 1016,3 hPa 0,0 l/m 29,5 km/h (5 Bft) NW 315 3,6 C 4,4 C
29.03.2012 10:12 8,3 C 72 % 1016,2 hPa 0,0 l/m 15,1 km/h (3 Bft) NW 315 3,6 C 5,8 C
29.03.2012 10:17 8,3 C 72 % 1016,3 hPa 0,0 l/m 15,1 km/h (3 Bft) N 360 3,6 C 5,8 C
29.03.2012 10:22 8,3 C 72 % 1016,3 hPa 0,0 l/m 20,5 km/h (4 Bft) W 270 3,6 C 5,2 C
29.03.2012 10:27 8,3 C 71 % 1016,3 hPa 0,0 l/m 12,2 km/h (2 Bft) W-NW 292 3,4 C 6,2 C
29.03.2012 10:32 8,3 C 71 % 1016,3 hPa 0,0 l/m 10,8 km/h (2 Bft) SW 225 3,4 C 6,5 C
29.03.2012 10:37 8,4 C 71 % 1016,0 hPa 0,0 l/m 15,5 km/h (3 Bft) W-NW 292 3,5 C 5,9 C
29.03.2012 10:42 8,5 C 70 % 1015,8 hPa 0,0 l/m 18,4 km/h (3 Bft) W-NW 292 3,3 C 5,7 C
29.03.2012 10:47 8,6 C 70 % 1015,7 hPa 0,0 l/m 23,0 km/h (4 Bft) W 270 3,4 C 5,3 C
29.03.2012 10:52 8,7 C 70 % 1015,8 hPa 0,0 l/m 8,6 km/h (2 Bft) W-NW 292 3,5 C 7,4 C
29.03.2012 10:57 8,8 C 70 % 1015,7 hPa 0,0 l/m 15,8 km/h (3 Bft) W-NW 292 3,6 C 6,3 C
29.03.2012 11:02 8,9 C 70 % 1015,7 hPa 0,0 l/m 31,3 km/h (5 Bft) W-NW 292 3,7 C 5,0 C
29.03.2012 11:07 8,9 C 69 % 1015,6 hPa 0,0 l/m 20,5 km/h (4 Bft) NW 315 3,5 C 5,9 C
29.03.2012 11:12 9,1 C 69 % 1015,4 hPa 0,0 l/m 15,8 km/h (3 Bft) W 270 3,7 C 6,7 C
29.03.2012 11:17 9,3 C 69 % 1015,4 hPa 0,0 l/m 25,2 km/h (4 Bft) W 270 3,9 C 6,0 C
29.03.2012 11:22 9,4 C 68 % 1015,4 hPa 0,0 l/m 18,7 km/h (3 Bft) W-NW 292 3,8 C 6,8 C
29.03.2012 11:27 9,4 C 68 % 1015,2 hPa 0,0 l/m 22,0 km/h (4 Bft) W-NW 292 3,8 C 6,4 C
29.03.2012 11:32 9,3 C 69 % 1015,3 hPa 0,0 l/m 7,6 km/h (2 Bft) W-NW 292 3,9 C 8,3 C
29.03.2012 11:37 9,2 C 70 % 1015,3 hPa 0,0 l/m 23,0 km/h (4 Bft) W 270 4,0 C 6,1 C
29.03.2012 11:42 9,1 C 70 % 1015,3 hPa 0,0 l/m 5,8 km/h (2 Bft) W-NW 292 3,9 C 8,5 C
29.03.2012 11:47 9,2 C 70 % 1015,3 hPa 0,0 l/m 11,2 km/h (2 Bft) W 270 4,0 C 7,5 C
29.03.2012 11:52 9,2 C 70 % 1015,2 hPa 0,0 l/m 16,9 km/h (3 Bft) W-NW 292 4,0 C 6,7 C
29.03.2012 11:57 9,3 C 70 % 1015,2 hPa 0,0 l/m 22,3 km/h (4 Bft) W 270 4,1 C 6,3 C
29.03.2012 12:02 9,3 C 70 % 1015,2 hPa 0,0 l/m 8,6 km/h (2 Bft) W 270 4,1 C 8,1 C
29.03.2012 12:07 9,3 C 70 % 1014,9 hPa 0,0 l/m 18,4 km/h (3 Bft) NW 315 4,1 C 6,7 C
29.03.2012 12:12 9,3 C 70 % 1014,9 hPa 0,0 l/m 15,8 km/h (3 Bft) W 270 4,1 C 7,0 C
29.03.2012 12:17 9,2 C 69 % 1015,0 hPa 0,0 l/m 11,9 km/h (2 Bft) NW 315 3,8 C 7,4 C
29.03.2012 12:22 9,3 C 70 % 1014,9 hPa 0,0 l/m 22,0 km/h (4 Bft) W-NW 292 4,1 C 6,3 C
29.03.2012 12:27 9,2 C 69 % 1014,9 hPa 0,0 l/m 23,4 km/h (4 Bft) W-NW 292 3,8 C 6,0 C
29.03.2012 12:32 9,1 C 70 % 1014,8 hPa 0,0 l/m 19,1 km/h (3 Bft) W 270 3,9 C 6,3 C
29.03.2012 12:37 9,2 C 70 % 1014,8 hPa 0,0 l/m 25,6 km/h (4 Bft) W-NW 292 4,0 C 5,9 C
29.03.2012 12:42 9,3 C 70 % 1014,9 hPa 0,0 l/m 20,9 km/h (4 Bft) W 270 4,1 C 6,4 C
29.03.2012 12:47 9,3 C 70 % 1014,7 hPa 0,0 l/m 27,7 km/h (4 Bft) W 270 4,1 C 5,8 C
29.03.2012 12:52 9,1 C 70 % 1014,7 hPa 0,0 l/m 16,2 km/h (3 Bft) NW 315 3,9 C 6,7 C
29.03.2012 12:57 9,0 C 72 % 1014,6 hPa 0,0 l/m 14,0 km/h (3 Bft) W-NW 292 4,2 C 6,8 C
29.03.2012 13:02 9,0 C 73 % 1014,5 hPa 0,0 l/m 24,8 km/h (4 Bft) W-NW 292 4,4 C 5,7 C
29.03.2012 13:07 8,9 C 73 % 1014,4 hPa 0,0 l/m 28,1 km/h (4 Bft) W-NW 292 4,3 C 5,3 C
29.03.2012 13:12 8,9 C 74 % 1014,4 hPa 0,0 l/m 29,9 km/h (5 Bft) NW 315 4,5 C 5,1 C
29.03.2012 13:17 8,7 C 75 % 1014,5 hPa 0,0 l/m 19,4 km/h (3 Bft) W-NW 292 4,5 C 5,8 C
29.03.2012 13:22 8,6 C 75 % 1014,3 hPa 0,0 l/m 13,0 km/h (3 Bft) W-NW 292 4,4 C 6,5 C
29.03.2012 13:27 8,7 C 76 % 1014,4 hPa 0,0 l/m 20,2 km/h (4 Bft) W-NW 292 4,7 C 5,7 C
29.03.2012 13:32 8,8 C 76 % 1014,1 hPa 0,0 l/m 23,0 km/h (4 Bft) NW 315 4,8 C 5,6 C
29.03.2012 13:37 8,8 C 76 % 1014,0 hPa 0,0 l/m 27,0 km/h (4 Bft) W-NW 292 4,8 C 5,2 C
29.03.2012 13:42 8,7 C 76 % 1014,2 hPa 0,0 l/m 18,0 km/h (3 Bft) W 270 4,7 C 5,9 C
29.03.2012 13:47 8,8 C 77 % 1014,1 hPa 0,0 l/m 16,6 km/h (3 Bft) NW 315 5,0 C 6,2 C
29.03.2012 13:52 8,9 C 76 % 1013,8 hPa 0,0 l/m 18,4 km/h (3 Bft) W 270 4,9 C 6,2 C
29.03.2012 13:57 9,1 C 76 % 1014,0 hPa 0,0 l/m 23,0 km/h (4 Bft) W-NW 292 5,1 C 6,0 C
29.03.2012 14:02 9,3 C 75 % 1014,0 hPa 0,0 l/m 12,2 km/h (2 Bft) W 270 5,1 C 7,4 C
29.03.2012 14:07 9,3 C 75 % 1013,8 hPa 0,0 l/m 15,5 km/h (3 Bft) W 270 5,1 C 7,0 C
29.03.2012 14:12 9,4 C 74 % 1013,7 hPa 0,0 l/m 18,0 km/h (3 Bft) NW 315 5,0 C 6,8 C
29.03.2012 14:17 9,5 C 74 % 1013,7 hPa 0,0 l/m 18,7 km/h (3 Bft) W 270 5,1 C 6,9 C
29.03.2012 14:22 9,4 C 73 % 1013,7 hPa 0,0 l/m 27,4 km/h (4 Bft) W-NW 292 4,8 C 6,0 C
29.03.2012 14:27 9,4 C 73 % 1013,8 hPa 0,0 l/m 24,1 km/h (4 Bft) N-NW 337 4,8 C 6,2 C
29.03.2012 14:32 9,4 C 73 % 1013,7 hPa 0,0 l/m 20,9 km/h (4 Bft) W 270 4,8 C 6,5 C
29.03.2012 14:37 9,5 C 72 % 1013,7 hPa 0,0 l/m 26,6 km/h (4 Bft) NW 315 4,7 C 6,2 C
29.03.2012 14:42 9,6 C 73 % 1013,5 hPa 0,0 l/m 25,6 km/h (4 Bft) NW 315 5,0 C 6,4 C
29.03.2012 14:47 9,6 C 72 % 1013,5 hPa 0,0 l/m 18,7 km/h (3 Bft) W-SW 247 4,8 C 7,0 C
29.03.2012 14:52 9,6 C 72 % 1013,7 hPa 0,0 l/m 25,2 km/h (4 Bft) W-NW 292 4,8 C 6,4 C
29.03.2012 14:57 9,7 C 71 % 1013,6 hPa 0,0 l/m 22,0 km/h (4 Bft) NW 315 4,7 C 6,8 C
29.03.2012 15:02 9,6 C 71 % 1013,5 hPa 0,0 l/m 15,8 km/h (3 Bft) W 270 4,6 C 7,3 C
29.03.2012 15:07 9,6 C 71 % 1013,5 hPa 0,0 l/m 13,0 km/h (3 Bft) NW 315 4,6 C 7,7 C
29.03.2012 15:12 9,8 C 72 % 1013,3 hPa 0,0 l/m 19,8 km/h (3 Bft) NW 315 5,0 C 7,1 C
29.03.2012 15:17 9,8 C 72 % 1013,4 hPa 0,0 l/m 13,3 km/h (3 Bft) W-NW 292 5,0 C 7,9 C
29.03.2012 15:22 9,6 C 72 % 1013,4 hPa 0,0 l/m 16,9 km/h (3 Bft) W-NW 292 4,8 C 7,2 C
29.03.2012 15:27 9,6 C 73 % 1013,3 hPa 0,0 l/m 18,0 km/h (3 Bft) W 270 5,0 C 7,1 C
29.03.2012 15:32 9,4 C 73 % 1013,1 hPa 0,0 l/m 21,6 km/h (4 Bft) W-SW 247 4,8 C 6,5 C
29.03.2012 15:37 9,3 C 74 % 1013,1 hPa 0,0 l/m 18,0 km/h (3 Bft) W-NW 292 4,9 C 6,7 C
29.03.2012 15:42 9,2 C 74 % 1013,3 hPa 0,0 l/m 17,3 km/h (3 Bft) W 270 4,8 C 6,7 C
29.03.2012 15:47 9,1 C 74 % 1013,4 hPa 0,0 l/m 12,2 km/h (2 Bft) W 270 4,7 C 7,2 C
29.03.2012 15:52 9,3 C 74 % 1013,2 hPa 0,0 l/m 31,3 km/h (5 Bft) W-NW 292 4,9 C 5,6 C
29.03.2012 15:57 9,3 C 73 % 1013,2 hPa 0,0 l/m 7,2 km/h (2 Bft) W-NW 292 4,7 C 8,4 C
29.03.2012 16:02 9,3 C 74 % 1013,0 hPa 0,0 l/m 16,9 km/h (3 Bft) W 270 4,9 C 6,8 C
29.03.2012 16:07 9,3 C 74 % 1012,9 hPa 0,0 l/m 10,8 km/h (2 Bft) W-NW 292 4,9 C 7,7 C
29.03.2012 16:12 9,3 C 74 % 1012,8 hPa 0,0 l/m 9,0 km/h (2 Bft) W-NW 292 4,9 C 8,0 C
29.03.2012 16:17 9,3 C 73 % 1012,8 hPa 0,0 l/m 17,3 km/h (3 Bft) N-NW 337 4,7 C 6,8 C
29.03.2012 16:22 9,3 C 73 % 1012,9 hPa 0,0 l/m 11,5 km/h (2 Bft) S-SW 202 4,7 C 7,5 C
29.03.2012 16:27 9,3 C 73 % 1012,7 hPa 0,0 l/m 10,8 km/h (2 Bft) N-NW 337 4,7 C 7,7 C
29.03.2012 16:32 9,2 C 73 % 1012,8 hPa 0,0 l/m 23,0 km/h (4 Bft) W-NW 292 4,6 C 6,1 C
29.03.2012 16:37 9,1 C 74 % 1012,6 hPa 0,0 l/m 9,7 km/h (2 Bft) W-NW 292 4,7 C 7,6 C
29.03.2012 16:42 9,1 C 75 % 1012,8 hPa 0,0 l/m 23,4 km/h (4 Bft) W-NW 292 4,9 C 5,9 C
29.03.2012 16:47 8,9 C 75 % 1012,7 hPa 0,0 l/m 19,4 km/h (3 Bft) NW 315 4,7 C 6,0 C
29.03.2012 16:52 8,9 C 76 % 1012,7 hPa 0,0 l/m 24,1 km/h (4 Bft) W-NW 292 4,9 C 5,6 C
29.03.2012 16:57 8,8 C 77 % 1012,6 hPa 0,0 l/m 25,9 km/h (4 Bft) W 270 5,0 C 5,3 C
29.03.2012 17:02 8,7 C 77 % 1012,6 hPa 0,0 l/m 27,0 km/h (4 Bft) W 270 4,9 C 5,1 C
29.03.2012 17:07 8,9 C 77 % 1012,4 hPa 0,0 l/m 13,3 km/h (3 Bft) W 270 5,1 C 6,8 C
29.03.2012 17:12 8,9 C 77 % 1012,1 hPa 0,0 l/m 22,0 km/h (4 Bft) W 270 5,1 C 5,8 C
29.03.2012 17:17 9,1 C 76 % 1012,1 hPa 0,0 l/m 24,8 km/h (4 Bft) W-NW 292 5,1 C 5,8 C
29.03.2012 17:22 9,1 C 75 % 1012,0 hPa 0,0 l/m 19,8 km/h (3 Bft) NW 315 4,9 C 6,3 C
29.03.2012 17:27 9,2 C 73 % 1012,0 hPa 0,0 l/m 22,7 km/h (4 Bft) W 270 4,6 C 6,1 C
29.03.2012 17:32 9,1 C 73 % 1012,0 hPa 0,0 l/m 12,6 km/h (3 Bft) NW 315 4,5 C 7,1 C
29.03.2012 17:37 9,1 C 73 % 1011,9 hPa 0,0 l/m 9,4 km/h (2 Bft) W 270 4,5 C 7,7 C
29.03.2012 17:42 9,0 C 73 % 1011,9 hPa 0,0 l/m 5,4 km/h (1 Bft) O-SO 112 4,4 C 8,5 C
29.03.2012 17:47 8,9 C 74 % 1011,8 hPa 0,0 l/m 29,9 km/h (5 Bft) W-NW 292 4,5 C 5,1 C
29.03.2012 17:52 8,9 C 74 % 1011,9 hPa 0,0 l/m 12,2 km/h (2 Bft) NW 315 4,5 C 7,0 C
29.03.2012 17:57 8,9 C 73 % 1011,8 hPa 0,0 l/m 14,0 km/h (3 Bft) W 270 4,3 C 6,7 C
29.03.2012 18:02 8,9 C 72 % 1011,7 hPa 0,0 l/m 27,4 km/h (4 Bft) W 270 4,1 C 5,3 C
29.03.2012 18:07 9,0 C 72 % 1011,6 hPa 0,0 l/m 22,0 km/h (4 Bft) W-NW 292 4,2 C 5,9 C
29.03.2012 18:12 9,0 C 71 % 1011,6 hPa 0,0 l/m 14,4 km/h (3 Bft) W 270 4,0 C 6,8 C
29.03.2012 18:17 8,9 C 71 % 1011,5 hPa 0,0 l/m 19,1 km/h (3 Bft) W-NW 292 3,9 C 6,1 C
29.03.2012 18:22 8,9 C 71 % 1011,5 hPa 0,0 l/m 27,7 km/h (4 Bft) W 270 3,9 C 5,3 C
29.03.2012 18:27 8,9 C 71 % 1011,5 hPa 0,0 l/m 15,5 km/h (3 Bft) NW 315 3,9 C 6,5 C
29.03.2012 18:32 8,9 C 71 % 1011,7 hPa 0,0 l/m 24,1 km/h (4 Bft) W 270 3,9 C 5,6 C
29.03.2012 18:37 8,9 C 70 % 1011,8 hPa 0,0 l/m 15,8 km/h (3 Bft) W-NW 292 3,7 C 6,5 C
29.03.2012 18:42 8,9 C 70 % 1011,7 hPa 0,0 l/m 20,2 km/h (4 Bft) W-NW 292 3,7 C 6,0 C
29.03.2012 18:47 8,9 C 70 % 1011,7 hPa 0,0 l/m 19,8 km/h (3 Bft) W-NW 292 3,7 C 6,0 C
29.03.2012 18:52 8,9 C 70 % 1011,6 hPa 0,0 l/m 18,7 km/h (3 Bft) W-NW 292 3,7 C 6,1 C
29.03.2012 18:57 8,9 C 70 % 1011,6 hPa 0,0 l/m 28,8 km/h (4 Bft) W-NW 292 3,7 C 5,2 C
29.03.2012 19:02 8,9 C 70 % 1011,6 hPa 0,0 l/m 17,3 km/h (3 Bft) NW 315 3,7 C 6,3 C
29.03.2012 19:07 8,9 C 69 % 1011,6 hPa 0,0 l/m 15,5 km/h (3 Bft) W-NW 292 3,5 C 6,5 C
29.03.2012 19:12 8,9 C 69 % 1011,7 hPa 0,0 l/m 19,1 km/h (3 Bft) W-NW 292 3,5 C 6,1 C
29.03.2012 19:17 8,9 C 69 % 1011,7 hPa 0,0 l/m 18,0 km/h (3 Bft) W-NW 292 3,5 C 6,2 C
29.03.2012 19:22 8,9 C 69 % 1011,7 hPa 0,0 l/m 29,5 km/h (5 Bft) NW 315 3,5 C 5,2 C
29.03.2012 19:27 8,9 C 69 % 1011,6 hPa 0,0 l/m 18,7 km/h (3 Bft) N-NW 337 3,5 C 6,1 C
29.03.2012 19:32 8,8 C 68 % 1011,6 hPa 0,0 l/m 11,9 km/h (2 Bft) NW 315 3,2 C 6,9 C
29.03.2012 19:37 8,8 C 68 % 1011,5 hPa 0,0 l/m 22,3 km/h (4 Bft) W-NW 292 3,2 C 5,6 C
29.03.2012 19:42 8,8 C 68 % 1011,5 hPa 0,0 l/m 19,8 km/h (3 Bft) W-SW 247 3,2 C 5,9 C
29.03.2012 19:47 8,8 C 67 % 1011,4 hPa 0,0 l/m 19,1 km/h (3 Bft) W-NW 292 3,0 C 6,0 C
29.03.2012 19:52 8,8 C 67 % 1011,6 hPa 0,0 l/m 21,6 km/h (4 Bft) N-NW 337 3,0 C 5,7 C
29.03.2012 19:57 8,7 C 67 % 1011,5 hPa 0,0 l/m 27,0 km/h (4 Bft) W-NW 292 2,9 C 5,1 C
29.03.2012 20:02 8,7 C 67 % 1011,4 hPa 0,0 l/m 19,1 km/h (3 Bft) W-NW 292 2,9 C 5,8 C
29.03.2012 20:07 8,7 C 67 % 1011,6 hPa 0,0 l/m 25,6 km/h (4 Bft) N-NW 337 2,9 C 5,2 C
29.03.2012 20:12 8,6 C 67 % 1011,6 hPa 0,0 l/m 25,2 km/h (4 Bft) NW 315 2,8 C 5,1 C
29.03.2012 20:17 8,7 C 67 % 1011,5 hPa 0,0 l/m 27,7 km/h (4 Bft) W-NW 292 2,9 C 5,1 C
29.03.2012 20:22 8,6 C 67 % 1011,6 hPa 0,0 l/m 23,4 km/h (4 Bft) W-NW 292 2,8 C 5,3 C
29.03.2012 20:27 8,6 C 66 % 1011,7 hPa 0,0 l/m 21,2 km/h (4 Bft) W-NW 292 2,6 C 5,5 C
29.03.2012 20:32 8,6 C 66 % 1011,7 hPa 0,0 l/m 10,8 km/h (2 Bft) NW 315 2,6 C 6,8 C
29.03.2012 20:37 8,6 C 66 % 1011,8 hPa 0,0 l/m 19,1 km/h (3 Bft) NW 315 2,6 C 5,7 C
29.03.2012 20:42 8,6 C 66 % 1011,6 hPa 0,0 l/m 21,6 km/h (4 Bft) NW 315 2,6 C 5,5 C
29.03.2012 20:47 8,5 C 66 % 1011,7 hPa 0,0 l/m 21,6 km/h (4 Bft) N-NW 337 2,5 C 5,3 C
29.03.2012 20:52 8,5 C 67 % 1011,8 hPa 0,0 l/m 14,8 km/h (3 Bft) W-NW 292 2,7 C 6,1 C
29.03.2012 20:57 8,5 C 68 % 1011,7 hPa 0,0 l/m 23,4 km/h (4 Bft) W 270 2,9 C 5,2 C
29.03.2012 21:02 8,4 C 68 % 1011,7 hPa 0,0 l/m 11,2 km/h (2 Bft) W-NW 292 2,8 C 6,5 C
29.03.2012 21:07 8,4 C 69 % 1011,7 hPa 0,0 l/m 18,4 km/h (3 Bft) N-NW 337 3,0 C 5,5 C
29.03.2012 21:12 8,4 C 69 % 1011,9 hPa 0,0 l/m 25,2 km/h (4 Bft) W-NW 292 3,0 C 4,9 C
29.03.2012 21:17 8,4 C 69 % 1011,9 hPa 0,0 l/m 31,7 km/h (5 Bft) W-NW 292 3,0 C 4,4 C
29.03.2012 21:22 8,3 C 69 % 1011,9 hPa 0,0 l/m 23,0 km/h (4 Bft) W 270 3,0 C 4,9 C
29.03.2012 21:27 8,3 C 70 % 1011,8 hPa 0,0 l/m 14,4 km/h (3 Bft) W 270 3,2 C 5,9 C
29.03.2012 21:32 8,3 C 70 % 1011,9 hPa 0,0 l/m 21,2 km/h (4 Bft) W-NW 292 3,2 C 5,1 C
29.03.2012 21:37 8,2 C 70 % 1011,9 hPa 0,0 l/m 18,7 km/h (3 Bft) N 360 3,1 C 5,2 C
29.03.2012 21:42 8,2 C 70 % 1012,1 hPa 0,0 l/m 16,2 km/h (3 Bft) W-NW 292 3,1 C 5,5 C
29.03.2012 21:47 8,2 C 70 % 1012,1 hPa 0,0 l/m 11,5 km/h (2 Bft) W 270 3,1 C 6,2 C
29.03.2012 21:52 8,2 C 70 % 1011,8 hPa 0,0 l/m 17,6 km/h (3 Bft) W-NW 292 3,1 C 5,4 C
29.03.2012 21:57 8,1 C 71 % 1012,0 hPa 0,0 l/m 19,4 km/h (3 Bft) W-NW 292 3,2 C 5,0 C
29.03.2012 22:02 8,1 C 71 % 1012,0 hPa 0,0 l/m 13,7 km/h (3 Bft) W 270 3,2 C 5,8 C
29.03.2012 22:07 8,1 C 71 % 1011,9 hPa 0,0 l/m 33,1 km/h (5 Bft) NW 315 3,2 C 3,9 C
29.03.2012 22:12 8,1 C 71 % 1012,0 hPa 0,0 l/m 19,1 km/h (3 Bft) NW 315 3,2 C 5,1 C
29.03.2012 22:17 8,1 C 71 % 1012,0 hPa 0,0 l/m 28,8 km/h (4 Bft) NW 315 3,2 C 4,2 C
29.03.2012 22:22 8,0 C 71 % 1012,0 hPa 0,0 l/m 27,7 km/h (4 Bft) W 270 3,1 C 4,1 C
29.03.2012 22:27 7,9 C 71 % 1011,9 hPa 0,0 l/m 18,4 km/h (3 Bft) W 270 3,0 C 4,9 C
29.03.2012 22:32 7,9 C 71 % 1012,1 hPa 0,0 l/m 25,2 km/h (4 Bft) W-NW 292 3,0 C 4,2 C
29.03.2012 22:37 7,9 C 71 % 1011,8 hPa 0,0 l/m 15,8 km/h (3 Bft) W 270 3,0 C 5,2 C
29.03.2012 22:42 7,9 C 71 % 1012,0 hPa 0,0 l/m 23,8 km/h (4 Bft) N 360 3,0 C 4,4 C
29.03.2012 22:47 7,9 C 71 % 1012,0 hPa 0,0 l/m 26,6 km/h (4 Bft) W 270 3,0 C 4,1 C
29.03.2012 22:52 7,9 C 71 % 1012,0 hPa 0,0 l/m 13,7 km/h (3 Bft) W-NW 292 3,0 C 5,5 C
29.03.2012 22:57 7,8 C 71 % 1011,8 hPa 0,0 l/m 14,0 km/h (3 Bft) W 270 2,9 C 5,3 C
29.03.2012 23:02 7,8 C 71 % 1012,0 hPa 0,0 l/m 16,9 km/h (3 Bft) W-NW 292 2,9 C 5,0 C
29.03.2012 23:07 7,8 C 71 % 1012,1 hPa 0,0 l/m 11,9 km/h (2 Bft) W-NW 292 2,9 C 5,7 C
29.03.2012 23:12 7,8 C 71 % 1012,0 hPa 0,0 l/m 9,4 km/h (2 Bft) W-NW 292 2,9 C 6,1 C
29.03.2012 23:17 7,7 C 71 % 1012,1 hPa 0,0 l/m 14,8 km/h (3 Bft) N-NW 337 2,8 C 5,1 C
29.03.2012 23:22 7,7 C 71 % 1012,0 hPa 0,0 l/m 6,1 km/h (2 Bft) W-SW 247 2,8 C 6,8 C
29.03.2012 23:27 7,6 C 71 % 1012,1 hPa 0,0 l/m 6,1 km/h (2 Bft) N 360 2,7 C 6,7 C
29.03.2012 23:32 7,6 C 71 % 1012,1 hPa 0,0 l/m 9,7 km/h (2 Bft) NW 315 2,7 C 5,8 C
29.03.2012 23:37 7,6 C 71 % 1011,9 hPa 0,0 l/m 22,0 km/h (4 Bft) NW 315 2,7 C 4,1 C
29.03.2012 23:42 7,6 C 71 % 1012,2 hPa 0,0 l/m 18,7 km/h (3 Bft) NW 315 2,7 C 4,5 C
29.03.2012 23:47 7,6 C 71 % 1012,1 hPa 0,0 l/m 26,6 km/h (4 Bft) N 360 2,7 C 3,7 C
29.03.2012 23:52 7,5 C 71 % 1012,2 hPa 0,0 l/m 12,2 km/h (2 Bft) W-NW 292 2,6 C 5,3 C
29.03.2012 23:57 7,5 C 71 % 1012,0 hPa 0,0 l/m 14,4 km/h (3 Bft) W-NW 292 2,6 C 4,9 C
_ Min-Zeit 06:47 20:27 19:47 - 07:07 - - 20:47 23:47
Minimum _ 7,3 C 66 % 1011,4 hPa - 2,9 km/h (1 Bft) - - 2,5 C 3,7 C
_ Max-Zeit 00:17 13:47 00:17 00:02 22:07 - - 14:17 00:17
Maximum _ 10,1 C 77 % 1019,4 hPa 0,0 l/m 33,1 km/h
NW (5 Bft)
- - 5,1 C 10,1 C
Durchschnitt _ 8,7 C 71 % 1015,2 hPa #0,0 l/m 17,3 km/h (3 Bft) W-NW - 3,7 C 6,1 C
(c) by David Heller